sensor_id;sensor_type;location;lat;lon;timestamp;P1;durP1;ratioP1;P2;durP2;ratioP2
44165;SDS011;30476;53.468;9.826;2023-03-01T00:01:23;0.80;;;0.80;;
44165;SDS011;30476;53.468;9.826;2023-03-01T00:03:51;0.80;;;0.73;;
44165;SDS011;30476;53.468;9.826;2023-03-01T00:06:18;0.80;;;0.70;;
44165;SDS011;30476;53.468;9.826;2023-03-01T00:08:45;0.80;;;0.80;;
44165;SDS011;30476;53.468;9.826;2023-03-01T00:11:16;0.70;;;0.70;;
44165;SDS011;30476;53.468;9.826;2023-03-01T00:13:50;1.07;;;0.70;;
44165;SDS011;30476;53.468;9.826;2023-03-01T00:16:19;1.00;;;0.90;;
44165;SDS011;30476;53.468;9.826;2023-03-01T00:18:53;0.90;;;0.90;;
44165;SDS011;30476;53.468;9.826;2023-03-01T00:21:20;0.80;;;0.80;;
44165;SDS011;30476;53.468;9.826;2023-03-01T00:23:47;0.90;;;0.80;;
44165;SDS011;30476;53.468;9.826;2023-03-01T00:26:14;1.50;;;1.10;;
44165;SDS011;30476;53.468;9.826;2023-03-01T00:28:41;1.23;;;1.10;;
44165;SDS011;30476;53.468;9.826;2023-03-01T00:31:08;1.57;;;1.10;;
44165;SDS011;30476;53.468;9.826;2023-03-01T00:33:36;1.50;;;1.20;;
44165;SDS011;30476;53.468;9.826;2023-03-01T00:36:02;1.50;;;1.37;;
44165;SDS011;30476;53.468;9.826;2023-03-01T00:38:29;1.83;;;1.50;;
44165;SDS011;30476;53.468;9.826;2023-03-01T00:40:55;1.50;;;1.40;;
44165;SDS011;30476;53.468;9.826;2023-03-01T00:43:21;2.17;;;1.60;;
44165;SDS011;30476;53.468;9.826;2023-03-01T00:45:47;3.20;;;1.67;;
44165;SDS011;30476;53.468;9.826;2023-03-01T00:48:12;1.30;;;1.20;;
44165;SDS011;30476;53.468;9.826;2023-03-01T00:50:38;1.50;;;1.40;;
44165;SDS011;30476;53.468;9.826;2023-03-01T00:53:04;6.07;;;1.30;;
44165;SDS011;30476;53.468;9.826;2023-03-01T00:55:30;1.40;;;1.30;;
44165;SDS011;30476;53.468;9.826;2023-03-01T00:57:56;1.33;;;1.23;;
44165;SDS011;30476;53.468;9.826;2023-03-01T01:00:22;1.40;;;1.30;;
44165;SDS011;30476;53.468;9.826;2023-03-01T01:02:48;4.87;;;1.50;;
44165;SDS011;30476;53.468;9.826;2023-03-01T01:05:14;2.90;;;1.73;;
44165;SDS011;30476;53.468;9.826;2023-03-01T01:07:45;2.60;;;1.00;;
44165;SDS011;30476;53.468;9.826;2023-03-01T01:10:10;1.43;;;1.20;;
44165;SDS011;30476;53.468;9.826;2023-03-01T01:12:43;1.80;;;1.07;;
44165;SDS011;30476;53.468;9.826;2023-03-01T01:15:09;1.50;;;1.20;;
44165;SDS011;30476;53.468;9.826;2023-03-01T01:17:38;1.87;;;1.00;;
44165;SDS011;30476;53.468;9.826;2023-03-01T01:20:04;1.43;;;1.23;;
44165;SDS011;30476;53.468;9.826;2023-03-01T01:22:30;1.23;;;1.10;;
44165;SDS011;30476;53.468;9.826;2023-03-01T01:24:55;1.20;;;1.03;;
44165;SDS011;30476;53.468;9.826;2023-03-01T01:27:21;1.63;;;1.00;;
44165;SDS011;30476;53.468;9.826;2023-03-01T01:29:47;1.23;;;1.17;;
44165;SDS011;30476;53.468;9.826;2023-03-01T01:32:13;1.30;;;1.20;;
44165;SDS011;30476;53.468;9.826;2023-03-01T01:34:39;1.20;;;1.00;;
44165;SDS011;30476;53.468;9.826;2023-03-01T01:37:05;1.17;;;1.07;;
44165;SDS011;30476;53.468;9.826;2023-03-01T01:39:33;1.30;;;1.20;;
44165;SDS011;30476;53.468;9.826;2023-03-01T01:42:00;1.60;;;1.07;;
44165;SDS011;30476;53.468;9.826;2023-03-01T01:44:27;1.43;;;1.00;;
44165;SDS011;30476;53.468;9.826;2023-03-01T01:47:04;1.33;;;1.20;;
44165;SDS011;30476;53.468;9.826;2023-03-01T01:49:35;1.50;;;1.17;;
44165;SDS011;30476;53.468;9.826;2023-03-01T01:54:36;1.47;;;1.17;;
44165;SDS011;30476;53.468;9.826;2023-03-01T01:57:18;1.20;;;1.10;;
44165;SDS011;30476;53.468;9.826;2023-03-01T01:59:49;0.90;;;0.90;;
44165;SDS011;30476;53.468;9.826;2023-03-01T02:02:18;1.93;;;1.47;;
44165;SDS011;30476;53.468;9.826;2023-03-01T02:04:44;1.30;;;1.13;;
44165;SDS011;30476;53.468;9.826;2023-03-01T02:07:14;1.20;;;1.00;;
44165;SDS011;30476;53.468;9.826;2023-03-01T02:09:45;0.97;;;0.93;;
44165;SDS011;30476;53.468;9.826;2023-03-01T02:12:14;0.93;;;0.93;;
44165;SDS011;30476;53.468;9.826;2023-03-01T02:14:42;2.50;;;1.23;;
44165;SDS011;30476;53.468;9.826;2023-03-01T02:17:08;1.00;;;1.00;;
44165;SDS011;30476;53.468;9.826;2023-03-01T02:19:40;1.23;;;1.00;;
44165;SDS011;30476;53.468;9.826;2023-03-01T02:22:31;2.00;;;1.10;;
44165;SDS011;30476;53.468;9.826;2023-03-01T02:30:26;1.20;;;1.00;;
44165;SDS011;30476;53.468;9.826;2023-03-01T02:32:54;1.53;;;1.37;;
44165;SDS011;30476;53.468;9.826;2023-03-01T02:35:29;3.87;;;1.10;;
44165;SDS011;30476;53.468;9.826;2023-03-01T02:37:58;1.40;;;1.20;;
44165;SDS011;30476;53.468;9.826;2023-03-01T02:40:27;1.10;;;1.00;;
44165;SDS011;30476;53.468;9.826;2023-03-01T02:42:58;1.23;;;0.90;;
44165;SDS011;30476;53.468;9.826;2023-03-01T02:45:25;1.43;;;1.10;;
44165;SDS011;30476;53.468;9.826;2023-03-01T02:47:55;1.10;;;1.00;;
44165;SDS011;30476;53.468;9.826;2023-03-01T02:53:11;1.57;;;1.10;;
44165;SDS011;30476;53.468;9.826;2023-03-01T02:55:42;1.13;;;1.03;;
44165;SDS011;30476;53.468;9.826;2023-03-01T02:58:08;1.20;;;1.10;;
44165;SDS011;30476;53.468;9.826;2023-03-01T03:00:36;1.40;;;1.30;;
44165;SDS011;30476;53.468;9.826;2023-03-01T03:03:05;2.10;;;1.27;;
44165;SDS011;30476;53.468;9.826;2023-03-01T03:05:32;1.53;;;1.10;;
44165;SDS011;30476;53.468;9.826;2023-03-01T03:08:00;1.10;;;1.00;;
44165;SDS011;30476;53.468;9.826;2023-03-01T03:10:32;1.10;;;1.00;;
44165;SDS011;30476;53.468;9.826;2023-03-01T03:13:00;0.90;;;0.90;;
44165;SDS011;30476;53.468;9.826;2023-03-01T03:15:28;2.40;;;1.13;;
44165;SDS011;30476;53.468;9.826;2023-03-01T03:17:55;1.30;;;1.00;;
44165;SDS011;30476;53.468;9.826;2023-03-01T03:20:22;1.10;;;1.00;;
44165;SDS011;30476;53.468;9.826;2023-03-01T03:22:50;1.20;;;1.10;;
44165;SDS011;30476;53.468;9.826;2023-03-01T03:25:18;1.20;;;1.10;;
44165;SDS011;30476;53.468;9.826;2023-03-01T03:27:45;1.13;;;1.03;;
44165;SDS011;30476;53.468;9.826;2023-03-01T03:30:14;1.53;;;1.10;;
44165;SDS011;30476;53.468;9.826;2023-03-01T03:32:44;2.10;;;1.30;;
44165;SDS011;30476;53.468;9.826;2023-03-01T03:35:26;1.30;;;1.20;;
44165;SDS011;30476;53.468;9.826;2023-03-01T03:37:55;0.90;;;0.90;;
44165;SDS011;30476;53.468;9.826;2023-03-01T03:43:15;1.00;;;1.00;;
44165;SDS011;30476;53.468;9.826;2023-03-01T03:45:45;1.00;;;1.00;;
44165;SDS011;30476;53.468;9.826;2023-03-01T03:48:13;2.03;;;1.63;;
44165;SDS011;30476;53.468;9.826;2023-03-01T03:50:39;1.27;;;1.00;;
44165;SDS011;30476;53.468;9.826;2023-03-01T03:53:07;1.73;;;1.30;;
44165;SDS011;30476;53.468;9.826;2023-03-01T03:55:34;1.20;;;1.10;;
44165;SDS011;30476;53.468;9.826;2023-03-01T03:58:01;1.40;;;1.10;;
44165;SDS011;30476;53.468;9.826;2023-03-01T04:00:35;3.43;;;1.00;;
44165;SDS011;30476;53.468;9.826;2023-03-01T04:03:06;0.80;;;0.80;;
44165;SDS011;30476;53.468;9.826;2023-03-01T04:05:33;1.03;;;1.00;;
44165;SDS011;30476;53.468;9.826;2023-03-01T04:08:00;1.30;;;1.20;;
44165;SDS011;30476;53.468;9.826;2023-03-01T04:10:27;1.10;;;1.00;;
44165;SDS011;30476;53.468;9.826;2023-03-01T04:12:58;1.27;;;1.17;;
44165;SDS011;30476;53.468;9.826;2023-03-01T04:15:24;1.20;;;1.10;;
44165;SDS011;30476;53.468;9.826;2023-03-01T04:17:52;3.00;;;1.27;;
44165;SDS011;30476;53.468;9.826;2023-03-01T04:20:20;1.50;;;1.30;;
44165;SDS011;30476;53.468;9.826;2023-03-01T04:22:58;2.03;;;0.97;;
44165;SDS011;30476;53.468;9.826;2023-03-01T04:25:25;1.43;;;1.20;;
44165;SDS011;30476;53.468;9.826;2023-03-01T04:27:51;1.33;;;1.23;;
44165;SDS011;30476;53.468;9.826;2023-03-01T04:30:17;1.80;;;1.10;;
44165;SDS011;30476;53.468;9.826;2023-03-01T04:32:43;1.43;;;1.33;;
44165;SDS011;30476;53.468;9.826;2023-03-01T04:35:09;1.93;;;1.40;;
44165;SDS011;30476;53.468;9.826;2023-03-01T04:37:35;1.67;;;1.40;;
44165;SDS011;30476;53.468;9.826;2023-03-01T04:40:01;1.60;;;1.50;;
44165;SDS011;30476;53.468;9.826;2023-03-01T04:42:41;1.87;;;1.77;;
44165;SDS011;30476;53.468;9.826;2023-03-01T04:45:08;1.63;;;1.43;;
44165;SDS011;30476;53.468;9.826;2023-03-01T04:47:41;1.60;;;1.50;;
44165;SDS011;30476;53.468;9.826;2023-03-01T04:50:13;1.40;;;1.30;;
44165;SDS011;30476;53.468;9.826;2023-03-01T04:52:41;1.90;;;1.80;;
44165;SDS011;30476;53.468;9.826;2023-03-01T04:55:08;1.77;;;1.67;;
44165;SDS011;30476;53.468;9.826;2023-03-01T04:57:34;1.63;;;1.50;;
44165;SDS011;30476;53.468;9.826;2023-03-01T05:00:00;1.90;;;1.60;;
44165;SDS011;30476;53.468;9.826;2023-03-01T05:02:26;1.80;;;1.70;;
44165;SDS011;30476;53.468;9.826;2023-03-01T05:04:52;1.60;;;1.50;;
44165;SDS011;30476;53.468;9.826;2023-03-01T05:07:22;1.70;;;1.60;;
44165;SDS011;30476;53.468;9.826;2023-03-01T05:09:50;2.33;;;1.80;;
44165;SDS011;30476;53.468;9.826;2023-03-01T05:12:15;6.53;;;1.70;;
44165;SDS011;30476;53.468;9.826;2023-03-01T05:14:41;1.60;;;1.50;;
44165;SDS011;30476;53.468;9.826;2023-03-01T05:17:07;1.77;;;1.63;;
44165;SDS011;30476;53.468;9.826;2023-03-01T05:19:33;1.90;;;1.80;;
44165;SDS011;30476;53.468;9.826;2023-03-01T05:21:59;1.73;;;1.60;;
44165;SDS011;30476;53.468;9.826;2023-03-01T05:24:32;2.10;;;2.00;;
44165;SDS011;30476;53.468;9.826;2023-03-01T05:26:59;2.03;;;1.80;;
44165;SDS011;30476;53.468;9.826;2023-03-01T05:29:26;2.63;;;2.00;;
44165;SDS011;30476;53.468;9.826;2023-03-01T05:31:54;2.03;;;1.83;;
44165;SDS011;30476;53.468;9.826;2023-03-01T05:34:29;1.83;;;1.73;;
44165;SDS011;30476;53.468;9.826;2023-03-01T05:36:56;4.17;;;2.00;;
44165;SDS011;30476;53.468;9.826;2023-03-01T05:39:23;1.60;;;1.50;;
44165;SDS011;30476;53.468;9.826;2023-03-01T05:41:58;1.87;;;1.73;;
44165;SDS011;30476;53.468;9.826;2023-03-01T05:44:25;2.17;;;1.77;;
44165;SDS011;30476;53.468;9.826;2023-03-01T05:46:52;3.13;;;1.80;;
44165;SDS011;30476;53.468;9.826;2023-03-01T05:49:18;2.43;;;1.83;;
44165;SDS011;30476;53.468;9.826;2023-03-01T05:51:47;1.97;;;1.87;;
44165;SDS011;30476;53.468;9.826;2023-03-01T05:54:15;5.07;;;1.67;;
44165;SDS011;30476;53.468;9.826;2023-03-01T05:56:42;2.30;;;2.10;;
44165;SDS011;30476;53.468;9.826;2023-03-01T05:59:08;2.90;;;2.33;;
44165;SDS011;30476;53.468;9.826;2023-03-01T06:01:35;3.10;;;1.97;;
44165;SDS011;30476;53.468;9.826;2023-03-01T06:04:02;2.07;;;1.93;;
44165;SDS011;30476;53.468;9.826;2023-03-01T06:06:29;2.43;;;1.70;;
44165;SDS011;30476;53.468;9.826;2023-03-01T06:08:58;1.83;;;1.73;;
44165;SDS011;30476;53.468;9.826;2023-03-01T06:11:24;2.57;;;1.70;;
44165;SDS011;30476;53.468;9.826;2023-03-01T06:13:50;4.73;;;1.90;;
44165;SDS011;30476;53.468;9.826;2023-03-01T06:16:15;2.40;;;2.10;;
44165;SDS011;30476;53.468;9.826;2023-03-01T06:18:41;2.63;;;2.13;;
44165;SDS011;30476;53.468;9.826;2023-03-01T06:21:07;2.20;;;1.70;;
44165;SDS011;30476;53.468;9.826;2023-03-01T06:23:34;1.97;;;1.77;;
44165;SDS011;30476;53.468;9.826;2023-03-01T06:26:00;2.40;;;1.80;;
44165;SDS011;30476;53.468;9.826;2023-03-01T06:28:30;2.80;;;2.60;;
44165;SDS011;30476;53.468;9.826;2023-03-01T06:30:55;2.40;;;2.00;;
44165;SDS011;30476;53.468;9.826;2023-03-01T06:33:21;2.37;;;2.27;;
44165;SDS011;30476;53.468;9.826;2023-03-01T06:35:49;2.00;;;1.90;;
44165;SDS011;30476;53.468;9.826;2023-03-01T06:38:16;2.57;;;2.03;;
44165;SDS011;30476;53.468;9.826;2023-03-01T06:40:44;3.20;;;2.60;;
44165;SDS011;30476;53.468;9.826;2023-03-01T06:43:16;2.10;;;1.80;;
44165;SDS011;30476;53.468;9.826;2023-03-01T06:45:42;1.90;;;1.80;;
44165;SDS011;30476;53.468;9.826;2023-03-01T06:48:08;2.67;;;2.13;;
44165;SDS011;30476;53.468;9.826;2023-03-01T06:50:34;2.50;;;2.27;;
44165;SDS011;30476;53.468;9.826;2023-03-01T06:53:01;2.33;;;2.23;;
44165;SDS011;30476;53.468;9.826;2023-03-01T06:55:27;2.00;;;1.90;;
44165;SDS011;30476;53.468;9.826;2023-03-01T06:57:54;2.53;;;2.33;;
44165;SDS011;30476;53.468;9.826;2023-03-01T07:00:21;2.57;;;2.30;;
44165;SDS011;30476;53.468;9.826;2023-03-01T07:02:48;3.57;;;2.53;;
44165;SDS011;30476;53.468;9.826;2023-03-01T07:05:13;2.87;;;2.17;;
44165;SDS011;30476;53.468;9.826;2023-03-01T07:07:39;2.27;;;1.93;;
44165;SDS011;30476;53.468;9.826;2023-03-01T07:10:05;2.40;;;2.20;;
44165;SDS011;30476;53.468;9.826;2023-03-01T07:12:32;3.27;;;2.20;;
44165;SDS011;30476;53.468;9.826;2023-03-01T07:14:58;5.40;;;2.30;;
44165;SDS011;30476;53.468;9.826;2023-03-01T07:17:24;2.53;;;1.90;;
44165;SDS011;30476;53.468;9.826;2023-03-01T07:19:50;2.03;;;1.70;;
44165;SDS011;30476;53.468;9.826;2023-03-01T07:22:15;1.90;;;1.80;;
44165;SDS011;30476;53.468;9.826;2023-03-01T07:24:42;2.47;;;2.27;;
44165;SDS011;30476;53.468;9.826;2023-03-01T07:27:09;2.40;;;2.20;;
44165;SDS011;30476;53.468;9.826;2023-03-01T07:29:35;4.07;;;2.63;;
44165;SDS011;30476;53.468;9.826;2023-03-01T07:32:04;4.33;;;2.80;;
44165;SDS011;30476;53.468;9.826;2023-03-01T07:34:30;5.33;;;4.90;;
44165;SDS011;30476;53.468;9.826;2023-03-01T07:36:56;6.67;;;4.23;;
44165;SDS011;30476;53.468;9.826;2023-03-01T07:39:22;7.53;;;4.90;;
44165;SDS011;30476;53.468;9.826;2023-03-01T07:41:48;4.37;;;4.07;;
44165;SDS011;30476;53.468;9.826;2023-03-01T07:44:15;4.40;;;4.00;;
44165;SDS011;30476;53.468;9.826;2023-03-01T07:46:42;4.27;;;3.97;;
44165;SDS011;30476;53.468;9.826;2023-03-01T07:49:09;5.03;;;3.93;;
44165;SDS011;30476;53.468;9.826;2023-03-01T07:51:35;2.83;;;2.63;;
44165;SDS011;30476;53.468;9.826;2023-03-01T07:54:01;3.43;;;3.13;;
44165;SDS011;30476;53.468;9.826;2023-03-01T07:56:27;3.20;;;3.00;;
44165;SDS011;30476;53.468;9.826;2023-03-01T07:58:52;5.13;;;3.50;;
44165;SDS011;30476;53.468;9.826;2023-03-01T08:01:19;3.80;;;3.40;;
44165;SDS011;30476;53.468;9.826;2023-03-01T08:03:45;3.90;;;3.57;;
44165;SDS011;30476;53.468;9.826;2023-03-01T08:06:12;3.50;;;3.30;;
44165;SDS011;30476;53.468;9.826;2023-03-01T08:08:41;3.43;;;2.97;;
44165;SDS011;30476;53.468;9.826;2023-03-01T08:11:07;7.40;;;6.80;;
44165;SDS011;30476;53.468;9.826;2023-03-01T08:13:35;6.00;;;5.23;;
44165;SDS011;30476;53.468;9.826;2023-03-01T08:16:05;9.80;;;6.37;;
44165;SDS011;30476;53.468;9.826;2023-03-01T08:18:32;5.40;;;4.90;;
44165;SDS011;30476;53.468;9.826;2023-03-01T08:21:05;10.03;;;6.50;;
44165;SDS011;30476;53.468;9.826;2023-03-01T08:23:42;5.97;;;5.47;;
44165;SDS011;30476;53.468;9.826;2023-03-01T08:28:34;5.63;;;4.30;;
44165;SDS011;30476;53.468;9.826;2023-03-01T08:31:00;4.23;;;3.93;;
44165;SDS011;30476;53.468;9.826;2023-03-01T08:33:27;5.20;;;4.80;;
44165;SDS011;30476;53.468;9.826;2023-03-01T08:36:01;5.60;;;5.10;;
44165;SDS011;30476;53.468;9.826;2023-03-01T08:38:32;7.33;;;5.10;;
44165;SDS011;30476;53.468;9.826;2023-03-01T08:40:59;5.70;;;5.20;;
44165;SDS011;30476;53.468;9.826;2023-03-01T08:43:27;5.67;;;5.20;;
44165;SDS011;30476;53.468;9.826;2023-03-01T08:45:52;6.33;;;5.73;;
44165;SDS011;30476;53.468;9.826;2023-03-01T08:48:18;5.83;;;5.33;;
44165;SDS011;30476;53.468;9.826;2023-03-01T08:50:44;5.30;;;4.90;;
44165;SDS011;30476;53.468;9.826;2023-03-01T08:53:10;6.73;;;6.13;;
44165;SDS011;30476;53.468;9.826;2023-03-01T08:55:36;5.67;;;5.27;;
44165;SDS011;30476;53.468;9.826;2023-03-01T08:58:02;6.23;;;5.53;;
44165;SDS011;30476;53.468;9.826;2023-03-01T09:00:28;6.03;;;5.43;;
44165;SDS011;30476;53.468;9.826;2023-03-01T09:02:53;5.97;;;5.57;;
44165;SDS011;30476;53.468;9.826;2023-03-01T09:05:19;7.93;;;6.20;;
44165;SDS011;30476;53.468;9.826;2023-03-01T09:07:45;6.30;;;5.80;;
44165;SDS011;30476;53.468;9.826;2023-03-01T09:10:11;6.27;;;5.70;;
44165;SDS011;30476;53.468;9.826;2023-03-01T09:12:37;10.90;;;6.77;;
44165;SDS011;30476;53.468;9.826;2023-03-01T09:15:03;8.30;;;6.70;;
44165;SDS011;30476;53.468;9.826;2023-03-01T09:17:29;8.57;;;7.23;;
44165;SDS011;30476;53.468;9.826;2023-03-01T09:19:55;6.83;;;6.20;;
44165;SDS011;30476;53.468;9.826;2023-03-01T09:22:20;12.17;;;8.70;;
44165;SDS011;30476;53.468;9.826;2023-03-01T09:24:46;11.40;;;9.23;;
44165;SDS011;30476;53.468;9.826;2023-03-01T09:27:12;11.17;;;8.20;;
44165;SDS011;30476;53.468;9.826;2023-03-01T09:29:39;9.70;;;7.70;;
44165;SDS011;30476;53.468;9.826;2023-03-01T09:32:05;9.63;;;8.73;;
44165;SDS011;30476;53.468;9.826;2023-03-01T09:34:33;9.30;;;8.40;;
44165;SDS011;30476;53.468;9.826;2023-03-01T09:37:19;10.50;;;8.70;;
44165;SDS011;30476;53.468;9.826;2023-03-01T09:39:45;11.77;;;9.20;;
44165;SDS011;30476;53.468;9.826;2023-03-01T09:42:10;11.27;;;8.50;;
44165;SDS011;30476;53.468;9.826;2023-03-01T09:47:27;10.73;;;9.47;;
44165;SDS011;30476;53.468;9.826;2023-03-01T09:52:43;12.10;;;9.60;;
44165;SDS011;30476;53.468;9.826;2023-03-01T09:55:31;15.97;;;11.50;;
44165;SDS011;30476;53.468;9.826;2023-03-01T10:03:56;17.20;;;9.73;;
44165;SDS011;30476;53.468;9.826;2023-03-01T10:06:48;11.23;;;10.03;;
44165;SDS011;30476;53.468;9.826;2023-03-01T10:09:37;11.63;;;10.43;;
44165;SDS011;30476;53.468;9.826;2023-03-01T10:12:07;11.33;;;10.20;;
44165;SDS011;30476;53.468;9.826;2023-03-01T10:14:55;12.50;;;11.03;;
44165;SDS011;30476;53.468;9.826;2023-03-01T10:17:38;11.53;;;10.33;;
44165;SDS011;30476;53.468;9.826;2023-03-01T10:20:26;14.60;;;12.27;;
44165;SDS011;30476;53.468;9.826;2023-03-01T10:23:05;13.60;;;11.60;;
44165;SDS011;30476;53.468;9.826;2023-03-01T10:28:42;15.63;;;12.17;;
44165;SDS011;30476;53.468;9.826;2023-03-01T10:31:24;15.13;;;11.40;;
44165;SDS011;30476;53.468;9.826;2023-03-01T10:34:02;12.57;;;10.80;;
44165;SDS011;30476;53.468;9.826;2023-03-01T10:36:43;16.23;;;11.00;;
44165;SDS011;30476;53.468;9.826;2023-03-01T10:39:16;18.10;;;10.30;;
44165;SDS011;30476;53.468;9.826;2023-03-01T10:47:00;10.83;;;9.73;;
44165;SDS011;30476;53.468;9.826;2023-03-01T10:49:29;11.37;;;9.13;;
44165;SDS011;30476;53.468;9.826;2023-03-01T10:51:55;9.53;;;7.50;;
44165;SDS011;30476;53.468;9.826;2023-03-01T10:54:29;8.70;;;7.33;;
44165;SDS011;30476;53.468;9.826;2023-03-01T10:56:57;8.00;;;7.00;;
44165;SDS011;30476;53.468;9.826;2023-03-01T10:59:29;9.23;;;6.97;;
44165;SDS011;30476;53.468;9.826;2023-03-01T11:04:59;13.17;;;7.87;;
44165;SDS011;30476;53.468;9.826;2023-03-01T11:10:17;10.03;;;8.00;;
44165;SDS011;30476;53.468;9.826;2023-03-01T11:12:48;10.00;;;7.80;;
44165;SDS011;30476;53.468;9.826;2023-03-01T11:15:21;13.30;;;8.70;;
44165;SDS011;30476;53.468;9.826;2023-03-01T11:17:52;10.60;;;8.67;;
44165;SDS011;30476;53.468;9.826;2023-03-01T11:20:38;20.37;;;18.37;;
44165;SDS011;30476;53.468;9.826;2023-03-01T11:23:05;9.47;;;8.57;;
44165;SDS011;30476;53.468;9.826;2023-03-01T11:25:38;10.63;;;8.47;;
44165;SDS011;30476;53.468;9.826;2023-03-01T11:28:07;9.10;;;7.20;;
44165;SDS011;30476;53.468;9.826;2023-03-01T11:30:43;7.83;;;7.07;;
44165;SDS011;30476;53.468;9.826;2023-03-01T11:36:05;7.13;;;6.43;;
44165;SDS011;30476;53.468;9.826;2023-03-01T11:38:53;8.00;;;7.20;;
44165;SDS011;30476;53.468;9.826;2023-03-01T11:41:20;8.20;;;6.97;;
44165;SDS011;30476;53.468;9.826;2023-03-01T11:44:12;7.90;;;7.10;;
44165;SDS011;30476;53.468;9.826;2023-03-01T11:46:46;8.60;;;6.90;;
44165;SDS011;30476;53.468;9.826;2023-03-01T11:55:07;15.80;;;9.80;;
44165;SDS011;30476;53.468;9.826;2023-03-01T12:00:30;35.80;;;17.43;;
44165;SDS011;30476;53.468;9.826;2023-03-01T12:03:16;50.23;;;25.90;;
44165;SDS011;30476;53.468;9.826;2023-03-01T12:08:59;7.83;;;6.57;;
44165;SDS011;30476;53.468;9.826;2023-03-01T12:17:11;7.10;;;6.40;;
44165;SDS011;30476;53.468;9.826;2023-03-01T12:19:57;7.10;;;6.40;;
44165;SDS011;30476;53.468;9.826;2023-03-01T12:37:19;7.60;;;6.37;;
44165;SDS011;30476;53.468;9.826;2023-03-01T12:40:13;7.63;;;5.90;;
44165;SDS011;30476;53.468;9.826;2023-03-01T12:43:02;6.63;;;5.93;;
44165;SDS011;30476;53.468;9.826;2023-03-01T12:45:42;7.10;;;6.10;;
44165;SDS011;30476;53.468;9.826;2023-03-01T12:51:01;7.17;;;6.43;;
44165;SDS011;30476;53.468;9.826;2023-03-01T12:53:35;9.13;;;4.90;;
44165;SDS011;30476;53.468;9.826;2023-03-01T12:56:12;6.33;;;5.73;;
44165;SDS011;30476;53.468;9.826;2023-03-01T13:01:27;7.53;;;6.80;;
44165;SDS011;30476;53.468;9.826;2023-03-01T13:04:06;6.43;;;5.57;;
44165;SDS011;30476;53.468;9.826;2023-03-01T13:09:31;8.90;;;6.20;;
44165;SDS011;30476;53.468;9.826;2023-03-01T13:12:01;7.60;;;6.80;;
44165;SDS011;30476;53.468;9.826;2023-03-01T13:14:36;10.73;;;7.07;;
44165;SDS011;30476;53.468;9.826;2023-03-01T13:17:24;10.00;;;7.53;;
44165;SDS011;30476;53.468;9.826;2023-03-01T13:19:58;9.67;;;6.97;;
44165;SDS011;30476;53.468;9.826;2023-03-01T13:22:25;8.30;;;7.30;;
44165;SDS011;30476;53.468;9.826;2023-03-01T13:25:00;8.70;;;7.73;;
44165;SDS011;30476;53.468;9.826;2023-03-01T13:27:36;12.93;;;8.57;;
44165;SDS011;30476;53.468;9.826;2023-03-01T13:30:02;11.20;;;7.90;;
44165;SDS011;30476;53.468;9.826;2023-03-01T13:32:35;9.50;;;7.77;;
44165;SDS011;30476;53.468;9.826;2023-03-01T13:37:40;14.10;;;8.47;;
44165;SDS011;30476;53.468;9.826;2023-03-01T13:42:50;9.53;;;7.57;;
44165;SDS011;30476;53.468;9.826;2023-03-01T13:47:49;9.30;;;7.23;;
44165;SDS011;30476;53.468;9.826;2023-03-01T13:50:20;8.93;;;7.97;;
44165;SDS011;30476;53.468;9.826;2023-03-01T13:52:57;12.13;;;8.50;;
44165;SDS011;30476;53.468;9.826;2023-03-01T13:55:30;17.70;;;8.87;;
44165;SDS011;30476;53.468;9.826;2023-03-01T13:58:05;8.93;;;7.13;;
44165;SDS011;30476;53.468;9.826;2023-03-01T14:01:03;9.37;;;7.30;;
44165;SDS011;30476;53.468;9.826;2023-03-01T14:03:32;7.67;;;6.90;;
44165;SDS011;30476;53.468;9.826;2023-03-01T14:06:09;10.40;;;7.30;;
44165;SDS011;30476;53.468;9.826;2023-03-01T14:08:38;9.10;;;8.20;;
44165;SDS011;30476;53.468;9.826;2023-03-01T14:11:31;9.33;;;8.30;;
44165;SDS011;30476;53.468;9.826;2023-03-01T14:19:55;15.70;;;10.93;;
44165;SDS011;30476;53.468;9.826;2023-03-01T14:22:24;12.20;;;9.90;;
44165;SDS011;30476;53.468;9.826;2023-03-01T14:25:02;11.77;;;9.50;;
44165;SDS011;30476;53.468;9.826;2023-03-01T14:27:38;12.90;;;10.80;;
44165;SDS011;30476;53.468;9.826;2023-03-01T14:32:57;13.10;;;9.80;;
44165;SDS011;30476;53.468;9.826;2023-03-01T14:35:27;14.37;;;10.70;;
44165;SDS011;30476;53.468;9.826;2023-03-01T14:37:55;13.93;;;10.07;;
44165;SDS011;30476;53.468;9.826;2023-03-01T14:40:22;15.30;;;10.80;;
44165;SDS011;30476;53.468;9.826;2023-03-01T14:42:50;18.83;;;11.80;;
44165;SDS011;30476;53.468;9.826;2023-03-01T14:45:17;18.40;;;12.67;;
44165;SDS011;30476;53.468;9.826;2023-03-01T14:47:43;16.53;;;11.40;;
44165;SDS011;30476;53.468;9.826;2023-03-01T14:52:56;18.63;;;11.70;;
44165;SDS011;30476;53.468;9.826;2023-03-01T14:58:02;20.30;;;13.90;;
44165;SDS011;30476;53.468;9.826;2023-03-01T15:00:31;18.10;;;12.37;;
44165;SDS011;30476;53.468;9.826;2023-03-01T15:03:00;18.10;;;12.50;;
44165;SDS011;30476;53.468;9.826;2023-03-01T15:05:34;21.00;;;12.70;;
44165;SDS011;30476;53.468;9.826;2023-03-01T15:08:02;17.60;;;12.20;;
44165;SDS011;30476;53.468;9.826;2023-03-01T15:10:32;18.33;;;12.57;;
44165;SDS011;30476;53.468;9.826;2023-03-01T15:13:13;21.90;;;13.10;;
44165;SDS011;30476;53.468;9.826;2023-03-01T15:15:50;20.50;;;12.20;;
44165;SDS011;30476;53.468;9.826;2023-03-01T15:18:20;17.77;;;12.37;;
44165;SDS011;30476;53.468;9.826;2023-03-01T15:20:50;21.27;;;12.53;;
44165;SDS011;30476;53.468;9.826;2023-03-01T15:23:22;15.97;;;10.40;;
44165;SDS011;30476;53.468;9.826;2023-03-01T15:25:51;20.10;;;11.60;;
44165;SDS011;30476;53.468;9.826;2023-03-01T15:28:25;21.83;;;14.20;;
44165;SDS011;30476;53.468;9.826;2023-03-01T15:30:55;19.50;;;13.43;;
44165;SDS011;30476;53.468;9.826;2023-03-01T15:35:52;22.60;;;17.00;;
44165;SDS011;30476;53.468;9.826;2023-03-01T15:38:30;20.20;;;14.07;;
44165;SDS011;30476;53.468;9.826;2023-03-01T15:41:00;21.20;;;12.90;;
44165;SDS011;30476;53.468;9.826;2023-03-01T15:46:19;19.10;;;12.17;;
44165;SDS011;30476;53.468;9.826;2023-03-01T15:48:50;19.80;;;11.33;;
44165;SDS011;30476;53.468;9.826;2023-03-01T15:51:29;16.53;;;10.13;;
44165;SDS011;30476;53.468;9.826;2023-03-01T15:54:00;16.17;;;10.90;;
44165;SDS011;30476;53.468;9.826;2023-03-01T15:56:32;17.47;;;9.90;;
44165;SDS011;30476;53.468;9.826;2023-03-01T15:58:59;12.77;;;10.37;;
44165;SDS011;30476;53.468;9.826;2023-03-01T16:01:25;16.17;;;10.63;;
44165;SDS011;30476;53.468;9.826;2023-03-01T16:03:51;12.80;;;8.70;;
44165;SDS011;30476;53.468;9.826;2023-03-01T16:06:18;15.27;;;10.60;;
44165;SDS011;30476;53.468;9.826;2023-03-01T16:08:44;19.27;;;11.13;;
44165;SDS011;30476;53.468;9.826;2023-03-01T16:11:17;16.33;;;11.40;;
44165;SDS011;30476;53.468;9.826;2023-03-01T16:13:44;19.20;;;11.20;;
44165;SDS011;30476;53.468;9.826;2023-03-01T16:16:10;14.57;;;9.87;;
44165;SDS011;30476;53.468;9.826;2023-03-01T16:18:40;18.23;;;11.70;;
44165;SDS011;30476;53.468;9.826;2023-03-01T16:21:10;19.40;;;12.00;;
44165;SDS011;30476;53.468;9.826;2023-03-01T16:23:38;13.53;;;10.17;;
44165;SDS011;30476;53.468;9.826;2023-03-01T16:26:04;13.40;;;10.10;;
44165;SDS011;30476;53.468;9.826;2023-03-01T16:28:30;13.33;;;10.13;;
44165;SDS011;30476;53.468;9.826;2023-03-01T16:30:55;17.67;;;11.63;;
44165;SDS011;30476;53.468;9.826;2023-03-01T16:33:21;18.50;;;11.03;;
44165;SDS011;30476;53.468;9.826;2023-03-01T16:35:47;20.33;;;12.50;;
44165;SDS011;30476;53.468;9.826;2023-03-01T16:38:14;15.60;;;10.97;;
44165;SDS011;30476;53.468;9.826;2023-03-01T16:40:40;16.70;;;10.73;;
44165;SDS011;30476;53.468;9.826;2023-03-01T16:43:13;15.60;;;11.27;;
44165;SDS011;30476;53.468;9.826;2023-03-01T16:45:38;15.23;;;11.23;;
44165;SDS011;30476;53.468;9.826;2023-03-01T16:48:06;15.77;;;11.07;;